Arlington, Wisconsin
Current Conditions -  °F | °C
As of 9:53 PM on Wednesday 17 Dec 2014 (Local Time) from KMSN Reporting Station
Clear Clear  
Wind Chill: 11°   Ceiling: Unl
Heat Index: 18°   Visibility: 10mi
Dew Point: 13°   Wind: 5mph
Humidity: 81%   Direction: 330°NNW
Pressure: 30.26"   Gusts: NA
Location:  43.34°N, 89.38°W
Report Text: KMSN 180353Z 33004KT 10SM CLR M08/M11 A3026 RMK AO2 SLP263 T10781106
Loading
Personal Weather Stations






























Interactive Weather Map New forecast layout! Learn more

10-Day Weather Forecast

Advertisements
Track Severe Weather on mobile